createdAt,value
2019-06-10T00:02:21.345Z,101629.00
2019-06-10T00:04:50.874Z,101628.23
2019-06-10T00:07:21.119Z,101621.96
2019-06-10T00:09:51.166Z,101614.34
2019-06-10T00:12:20.998Z,101616.28
2019-06-10T00:14:50.990Z,101612.58
2019-06-10T00:17:21.372Z,101614.34
2019-06-10T00:19:51.238Z,101608.43
2019-06-10T00:22:21.595Z,101608.12
2019-06-10T00:24:52.191Z,101605.55
2019-06-10T00:27:21.677Z,101603.38
2019-06-10T00:29:51.378Z,101595.95
2019-06-10T00:32:21.540Z,101597.89
2019-06-10T00:34:50.914Z,101594.91
2019-06-10T00:37:21.154Z,101597.02
2019-06-10T00:39:51.245Z,101591.11
2019-06-10T00:42:21.435Z,101591.20
2019-06-10T00:44:50.979Z,101586.70
2019-06-10T00:47:21.212Z,101588.64
2019-06-10T00:49:51.458Z,101584.45
2019-06-10T00:52:21.356Z,101576.16
2019-06-10T00:54:51.947Z,101575.80
2019-06-10T00:57:21.324Z,101576.45
2019-06-10T00:59:50.885Z,101572.58
2019-06-10T01:02:21.416Z,101560.31
2019-06-10T01:04:51.354Z,101568.15
2019-06-10T01:07:21.864Z,101559.63
2019-06-10T01:09:51.708Z,101557.23
2019-06-10T01:12:21.218Z,101549.02
2019-06-10T01:14:51.706Z,101550.16
2019-06-10T01:17:21.399Z,101543.59
2019-06-10T01:19:50.950Z,101543.68
2019-06-10T01:22:21.298Z,101546.11
2019-06-10T01:24:51.104Z,101541.89
2019-06-10T01:27:21.192Z,101540.05
2019-06-10T01:29:51.080Z,101529.03
2019-06-10T01:32:21.690Z,101535.59
2019-06-10T01:34:51.005Z,101527.85
2019-06-10T01:37:21.875Z,101528.93
2019-06-10T01:39:51.553Z,101524.65
2019-06-10T01:42:21.581Z,101519.08
2019-06-10T01:44:51.020Z,101518.88
2019-06-10T01:47:21.554Z,101518.66
2019-06-10T01:49:51.681Z,101513.66
2019-06-10T01:52:21.355Z,101503.93
2019-06-10T01:54:51.503Z,101500.45
2019-06-10T01:57:21.882Z,101504.52
2019-06-10T01:59:51.430Z,101505.30
2019-06-10T02:02:23.794Z,101505.79
2019-06-10T02:04:53.611Z,101499.40
2019-06-10T02:07:23.515Z,101491.87
2019-06-10T02:09:52.825Z,101487.41
2019-06-10T02:12:24.244Z,101491.47
2019-06-10T02:14:53.102Z,101493.40
2019-06-10T02:17:23.931Z,101487.81
2019-06-10T02:19:53.518Z,101483.75
2019-06-10T02:22:24.328Z,101485.29
2019-06-10T02:24:53.868Z,101482.00
2019-06-10T02:27:23.305Z,101479.79
2019-06-10T02:29:52.644Z,101475.05
2019-06-10T02:32:31.318Z,101465.31
2019-06-10T02:35:07.842Z,101463.66
2019-06-10T02:37:31.939Z,101461.45
2019-06-10T02:39:55.626Z,101457.21
2019-06-10T02:42:30.999Z,101454.97
2019-06-10T02:45:03.699Z,101451.91
2019-06-10T02:47:36.963Z,101443.03
2019-06-10T02:50:07.366Z,101437.64
2019-06-10T02:52:38.424Z,101433.41
2019-06-10T02:55:06.430Z,101430.52
2019-06-10T02:57:40.130Z,101427.41
2019-06-10T03:00:17.005Z,101426.83
2019-06-10T03:02:45.100Z,101423.72
2019-06-10T03:05:15.071Z,101414.83
2019-06-10T03:07:44.969Z,101413.39
2019-06-10T03:10:16.074Z,101414.08
2019-06-10T03:12:45.285Z,101417.55
2019-06-10T03:15:17.796Z,101416.97
2019-06-10T03:17:47.119Z,101416.21
2019-06-10T03:20:17.834Z,101416.79
2019-06-10T03:22:47.197Z,101415.66
2019-06-10T03:25:16.481Z,101410.62
2019-06-10T03:27:45.770Z,101409.36
2019-06-10T03:30:20.854Z,101409.94
2019-06-10T03:32:47.523Z,101407.14
2019-06-10T03:35:17.460Z,101404.71
2019-06-10T03:37:46.768Z,101403.28
2019-06-10T03:40:16.648Z,101401.15
2019-06-10T03:42:46.155Z,101397.95
2019-06-10T03:45:17.265Z,101396.25
2019-06-10T03:47:46.729Z,101395.08
2019-06-10T03:50:17.147Z,101392.38
2019-06-10T03:52:46.677Z,101384.76
2019-06-10T03:55:17.216Z,101385.89
2019-06-10T03:57:46.596Z,101376.47
2019-06-10T04:00:17.634Z,101383.60
2019-06-10T04:02:46.931Z,101384.37
2019-06-10T04:05:17.379Z,101379.73
2019-06-10T04:07:46.812Z,101378.20
2019-06-10T04:10:17.467Z,101373.88
2019-06-10T04:12:46.971Z,101371.52
2019-06-10T04:15:17.598Z,101367.30
2019-06-10T04:17:47.131Z,101370.77
2019-06-10T04:20:17.745Z,101365.37
2019-06-10T04:22:47.140Z,101362.66
2019-06-10T04:25:17.751Z,101359.86
2019-06-10T04:27:47.149Z,101356.48
2019-06-10T04:30:18.148Z,101359.46
2019-06-10T04:32:48.176Z,101348.78
2019-06-10T04:35:18.318Z,101345.00
2019-06-10T04:37:47.986Z,101338.24
2019-06-10T04:40:18.460Z,101337.06
2019-06-10T04:42:47.899Z,101333.50
2019-06-10T04:45:18.573Z,101333.50
2019-06-10T04:47:48.056Z,101329.18
2019-06-10T04:50:24.690Z,101324.14
2019-06-10T04:52:48.959Z,101323.55
2019-06-10T04:55:18.856Z,101323.17
2019-06-10T04:57:48.151Z,101326.23
2019-06-10T05:00:19.184Z,101334.69
2019-06-10T05:02:48.597Z,101334.94
2019-06-10T05:05:18.969Z,101329.02
2019-06-10T05:07:48.934Z,101339.91
2019-06-10T05:10:19.110Z,101342.91
2019-06-10T05:12:48.495Z,101337.77
2019-06-10T05:15:19.628Z,101339.09
2019-06-10T05:17:48.862Z,101338.48
2019-06-10T05:20:18.199Z,101337.69
2019-06-10T05:22:47.439Z,101331.19
2019-06-10T05:25:16.785Z,101327.13
2019-06-10T05:27:46.126Z,101320.11
2019-06-10T05:30:15.465Z,101318.52
2019-06-10T05:32:44.714Z,101321.03
2019-06-10T05:35:14.004Z,101323.73
2019-06-10T05:37:43.256Z,101325.09
2019-06-10T05:40:13.432Z,101321.78
2019-06-10T05:42:44.141Z,101321.59
2019-06-10T05:45:13.575Z,101319.80
2019-06-10T05:47:42.893Z,101320.66
2019-06-10T05:50:12.906Z,101316.30
2019-06-10T05:52:42.689Z,101316.94
2019-06-10T05:55:12.293Z,101314.03
2019-06-10T05:57:42.889Z,101312.44
2019-06-10T06:00:14.974Z,101312.23
2019-06-10T06:02:44.316Z,101309.85
2019-06-10T06:05:14.081Z,101315.22
2019-06-10T06:07:43.397Z,101314.10
2019-06-10T06:10:14.389Z,101312.20
2019-06-10T06:12:43.700Z,101305.59
2019-06-10T06:15:13.732Z,101304.79
2019-06-10T06:17:43.392Z,101303.44
2019-06-10T06:20:13.512Z,101298.02
2019-06-10T06:22:42.985Z,101302.68
2019-06-10T06:25:15.341Z,101301.69
2019-06-10T06:27:44.458Z,101303.23
2019-06-10T06:30:18.582Z,101299.53
2019-06-10T06:32:45.982Z,101293.36
2019-06-10T06:35:16.385Z,101295.11
2019-06-10T06:37:45.661Z,101292.41
2019-06-10T06:40:15.789Z,101291.31
2019-06-10T06:42:45.105Z,101282.14
2019-06-10T06:45:14.766Z,101281.89
2019-06-10T06:47:44.005Z,101277.98
2019-06-10T06:50:14.031Z,101267.75
2019-06-10T06:53:15.346Z,101263.69
2019-06-10T06:55:16.393Z,101267.20
2019-06-10T06:57:45.649Z,101259.58
2019-06-10T07:00:38.281Z,101263.27
2019-06-10T07:02:46.681Z,101261.32
2019-06-10T07:05:17.027Z,101259.73
2019-06-10T07:07:47.093Z,101255.45
2019-06-10T07:10:37.301Z,101257.20
2019-06-10T07:13:07.223Z,101255.00
2019-06-10T07:15:47.692Z,101254.19
2019-06-10T07:18:17.288Z,101253.83
2019-06-10T07:20:46.690Z,101258.53
2019-06-10T07:23:15.915Z,101248.70
2019-06-10T07:25:47.620Z,101246.53
2019-06-10T07:28:16.145Z,101237.45
2019-06-10T07:30:51.014Z,101233.30
2019-06-10T07:33:16.329Z,101239.43
2019-06-10T07:35:45.554Z,101235.72
2019-06-10T07:38:15.475Z,101238.26
2019-06-10T07:40:45.794Z,101238.94
2019-06-10T07:43:15.165Z,101239.97
2019-06-10T07:45:47.761Z,101239.93
2019-06-10T07:48:15.424Z,101229.31
2019-06-10T07:50:45.816Z,101235.25
2019-06-10T07:53:15.207Z,101228.73
2019-06-10T07:55:46.614Z,101228.02
2019-06-10T07:58:16.110Z,101230.58
2019-06-10T08:00:48.085Z,101227.91
2019-06-10T08:03:16.386Z,101239.16
2019-06-10T08:05:46.640Z,101233.98
2019-06-10T08:08:16.137Z,101234.91
2019-06-10T08:10:48.127Z,101217.17
2019-06-10T08:13:17.477Z,101230.00
2019-06-10T08:15:48.220Z,101222.77
2019-06-10T08:18:17.903Z,101215.51
2019-06-10T08:20:47.964Z,101215.06
2019-06-10T08:23:19.706Z,101221.13
2019-06-10T08:25:54.646Z,101219.08
2019-06-10T08:28:22.913Z,101210.14
2019-06-10T08:30:53.174Z,101208.05
2019-06-10T08:33:22.901Z,101201.77
2019-06-10T08:35:59.973Z,101193.75
2019-06-10T08:38:23.352Z,101188.31
2019-06-10T08:40:52.817Z,101180.68
2019-06-10T08:43:22.741Z,101174.63
2019-06-10T08:45:52.926Z,101171.80
2019-06-10T08:48:23.109Z,101160.55
2019-06-10T08:50:54.441Z,101156.23
2019-06-10T08:53:23.702Z,101148.17
2019-06-10T08:55:53.813Z,101150.77
2019-06-10T08:58:24.353Z,101149.19
2019-06-10T09:00:53.991Z,101151.27
2019-06-10T09:03:25.774Z,101150.17
2019-06-10T09:05:58.242Z,101143.25
2019-06-10T09:08:26.715Z,101136.67
2019-06-10T09:10:56.896Z,101145.83
2019-06-10T09:13:26.258Z,101143.62
2019-06-10T09:16:11.665Z,101157.05
2019-06-10T09:18:26.640Z,101140.28
2019-06-10T09:20:56.322Z,101135.70
2019-06-10T09:23:25.910Z,101125.83
2019-06-10T09:25:57.667Z,101128.89
2019-06-10T09:28:27.155Z,101122.22
2019-06-10T09:30:59.321Z,101113.42
2019-06-10T09:33:27.702Z,101110.22
2019-06-10T09:35:56.931Z,101112.55
2019-06-10T09:38:26.441Z,101105.03
2019-06-10T09:41:01.812Z,101096.12
2019-06-10T09:43:27.759Z,101107.23
2019-06-10T09:45:57.154Z,101092.54
2019-06-10T09:48:27.538Z,101092.06
2019-06-10T09:50:58.939Z,101089.11
2019-06-10T09:53:38.949Z,101099.96
2019-06-10T09:55:59.820Z,101094.50
2019-06-10T09:58:29.128Z,101091.51
2019-06-10T10:00:59.147Z,101098.30
2019-06-10T10:03:28.544Z,101099.19
2019-06-10T10:06:09.896Z,101091.78
2019-06-10T10:08:28.923Z,101086.83
2019-06-10T10:10:59.087Z,101087.78
2019-06-10T10:13:28.690Z,101090.24
2019-06-10T10:15:58.039Z,101078.36
2019-06-10T10:18:28.372Z,101070.36
2019-06-10T10:21:00.276Z,101068.09
2019-06-10T10:23:28.751Z,101062.52
2019-06-10T10:25:58.014Z,101053.57
2019-06-10T10:28:27.390Z,101062.45
2019-06-10T10:30:58.176Z,101056.03
2019-06-10T10:33:30.059Z,101049.33
2019-06-10T10:35:58.729Z,101076.17
2019-06-10T10:38:28.034Z,101045.12
2019-06-10T10:40:59.342Z,101052.42
2019-06-10T10:43:34.242Z,101044.23
2019-06-10T10:46:04.178Z,101034.03
2019-06-10T10:48:33.253Z,101027.91
2019-06-10T10:51:03.419Z,101034.02
2019-06-10T10:53:33.292Z,101031.34
2019-06-10T10:56:03.187Z,101024.32
2019-06-10T10:58:33.468Z,101012.80
2019-06-10T11:01:04.642Z,101012.21
2019-06-10T11:03:34.324Z,101021.91
2019-06-10T11:06:03.632Z,101023.98
2019-06-10T11:08:34.437Z,101015.30
2019-06-10T11:11:05.736Z,101010.42
2019-06-10T11:13:36.757Z,101009.66
2019-06-10T11:16:06.602Z,101003.44
2019-06-10T11:18:36.135Z,101005.95
2019-06-10T11:21:05.598Z,101012.91
2019-06-10T11:23:35.411Z,101013.55
2019-06-10T11:26:05.035Z,101010.41
2019-06-10T11:28:34.367Z,101009.28
2019-06-10T11:31:04.104Z,101000.09
2019-06-10T11:33:34.053Z,100998.09
2019-06-10T11:36:03.867Z,100994.58
2019-06-10T11:38:33.251Z,100981.24
2019-06-10T11:41:02.694Z,100972.36
2019-06-10T11:43:33.088Z,100970.28
2019-06-10T11:46:07.412Z,100972.09
2019-06-10T11:48:35.186Z,100970.22
2019-06-10T11:51:04.975Z,100953.11
2019-06-10T11:53:34.587Z,100948.56
2019-06-10T11:56:04.343Z,100947.00
2019-06-10T11:58:34.497Z,100951.80
2019-06-10T12:01:04.241Z,100949.21
2019-06-10T12:03:33.690Z,100954.96
2019-06-10T12:06:05.208Z,100949.99
2019-06-10T12:08:33.770Z,100955.03
2019-06-10T12:11:03.060Z,100949.00
2019-06-10T12:13:34.249Z,100953.42
2019-06-10T12:18:34.075Z,100949.21
2019-06-10T12:21:04.002Z,100937.84
2019-06-10T12:23:33.832Z,100947.70
2019-06-10T12:26:04.847Z,100947.00
2019-06-10T12:28:34.319Z,100951.02
2019-06-10T12:31:06.864Z,100941.63
2019-06-10T12:33:34.440Z,100944.41
2019-06-10T12:36:06.640Z,100954.25
2019-06-10T12:38:34.595Z,100948.94
2019-06-10T12:41:09.577Z,100951.80
2019-06-10T12:43:35.082Z,100952.98
2019-06-10T12:46:04.582Z,100955.63
2019-06-10T12:48:34.440Z,100947.22
2019-06-10T12:51:08.238Z,100943.91
2019-06-10T12:53:34.580Z,100939.46
2019-06-10T12:56:10.034Z,100932.23
2019-06-10T12:58:34.707Z,100932.77
2019-06-10T13:01:06.104Z,100932.94
2019-06-10T13:03:35.134Z,100927.16
2019-06-10T13:06:07.618Z,100925.03
2019-06-10T13:08:36.385Z,100923.16
2019-06-10T13:11:05.565Z,100912.11
2019-06-10T13:13:34.744Z,100912.91
2019-06-10T13:16:08.293Z,100910.14
2019-06-10T13:18:35.192Z,100914.22
2019-06-10T13:21:11.625Z,100917.19
2019-06-10T13:23:36.262Z,100901.33
2019-06-10T13:26:10.786Z,100897.67
2019-06-10T13:28:36.483Z,100890.47
2019-06-10T13:31:08.024Z,100884.77
2019-06-10T13:33:36.567Z,100892.69
2019-06-10T13:36:12.336Z,100898.44
2019-06-10T13:38:42.862Z,100894.56
2019-06-10T13:41:12.259Z,100883.05
2019-06-10T13:43:43.417Z,100883.28
2019-06-10T13:46:12.383Z,100882.84
2019-06-10T13:48:43.096Z,100883.42
2019-06-10T13:51:15.485Z,100879.45
2019-06-10T13:53:46.617Z,100873.39
2019-06-10T13:56:37.823Z,100857.55
2019-06-10T13:58:46.830Z,100853.47
2019-06-10T14:01:21.631Z,100848.13
2019-06-10T14:03:46.982Z,100854.28
2019-06-10T14:06:33.094Z,100841.02
2019-06-10T14:08:47.083Z,100840.37
2019-06-10T14:11:16.289Z,100840.74
2019-06-10T14:13:45.498Z,100850.06
2019-06-10T14:16:15.200Z,100852.56
2019-06-10T14:18:44.516Z,100855.64
2019-06-10T14:21:18.256Z,100851.19
2019-06-10T14:23:44.664Z,100859.08
2019-06-10T14:26:16.988Z,100857.72
2019-06-10T14:28:45.002Z,100856.51
2019-06-10T14:31:33.649Z,100852.14
2019-06-10T14:33:45.091Z,100843.03
2019-06-10T14:36:16.627Z,100851.58
2019-06-10T14:38:45.149Z,100841.47
2019-06-10T14:41:15.826Z,100845.83
2019-06-10T14:43:44.982Z,100843.82
2019-06-10T14:46:17.845Z,100853.21
2019-06-10T14:48:47.089Z,100846.48
2019-06-10T14:51:17.162Z,100851.98
2019-06-10T14:53:46.621Z,100848.84
2019-06-10T14:56:18.971Z,100845.55
2019-06-10T14:58:46.698Z,100843.55
2019-06-10T15:01:24.430Z,100837.73
2019-06-10T15:03:47.129Z,100834.16
2019-06-10T15:06:16.343Z,100830.86
2019-06-10T15:08:45.515Z,100825.34
2019-06-10T15:11:15.859Z,100824.47
2019-06-10T15:13:45.209Z,100818.61
2019-06-10T15:16:14.397Z,100818.95
2019-06-10T15:18:43.566Z,100820.17
2019-06-10T15:21:13.243Z,100821.77
2019-06-10T15:23:42.990Z,100820.41
2019-06-10T15:26:14.188Z,100817.46
2019-06-10T15:28:43.228Z,100806.48
2019-06-10T15:31:14.445Z,100833.01
2019-06-10T15:33:45.025Z,100829.49
2019-06-10T15:36:15.267Z,100829.69
2019-06-10T15:38:52.497Z,100823.40
2019-06-10T15:41:24.422Z,100821.38
2019-06-10T15:43:53.108Z,100830.55
2019-06-10T15:46:22.423Z,100830.20
2019-06-10T15:48:53.878Z,100831.05
2019-06-10T15:51:25.956Z,100833.64
2019-06-10T15:53:54.028Z,100835.34
2019-06-10T15:56:37.343Z,100829.19
2019-06-10T15:58:54.122Z,100833.48
2019-06-10T16:01:26.850Z,100835.08
2019-06-10T16:03:54.210Z,100840.66
2019-06-10T16:06:24.372Z,100838.00
2019-06-10T16:08:53.593Z,100839.09
2019-06-10T16:11:26.786Z,100847.47
2019-06-10T16:13:53.730Z,100845.12
2019-06-10T16:16:23.221Z,100853.84
2019-06-10T16:18:52.910Z,100853.40
2019-06-10T16:21:23.624Z,100841.77
2019-06-10T16:23:53.567Z,100828.81
2019-06-10T16:26:26.516Z,100817.08
2019-06-10T16:28:54.230Z,100817.11
2019-06-10T16:31:27.063Z,100826.02
2019-06-10T16:33:54.441Z,100821.84
2019-06-10T16:36:25.881Z,100814.70
2019-06-10T16:38:58.138Z,100807.83
2019-06-10T16:41:28.073Z,100795.93
2019-06-10T16:43:57.439Z,100787.63
2019-06-10T16:46:29.034Z,100792.80
2019-06-10T16:48:57.514Z,100790.93
2019-06-10T16:51:26.824Z,100782.33
2019-06-10T16:53:56.097Z,100785.55
2019-06-10T16:56:27.360Z,100789.50
2019-06-10T16:58:56.185Z,100790.48
2019-06-10T17:01:28.281Z,100789.70
2019-06-10T17:03:56.264Z,100795.01
2019-06-10T17:06:26.733Z,100793.41
2019-06-10T17:08:56.149Z,100786.06
2019-06-10T17:11:28.082Z,100784.06
2019-06-10T17:13:56.219Z,100792.05
2019-06-10T17:16:27.318Z,100778.52
2019-06-10T17:18:56.453Z,100779.53
2019-06-10T17:21:29.684Z,100784.91
2019-06-10T17:23:56.512Z,100781.75
2019-06-10T17:26:32.589Z,100782.60
2019-06-10T17:28:56.583Z,100789.20
2019-06-10T17:31:30.097Z,100783.89
2019-06-10T17:33:56.700Z,100784.30
2019-06-10T17:36:29.256Z,100787.72
2019-06-10T17:38:56.793Z,100787.39
2019-06-10T17:41:29.024Z,100777.16
2019-06-10T17:43:56.885Z,100762.27
2019-06-10T17:46:27.939Z,100753.91
2019-06-10T17:48:57.038Z,100747.25
2019-06-10T17:51:27.818Z,100745.17
2019-06-10T17:53:57.083Z,100755.98
2019-06-10T17:56:27.643Z,100770.87
2019-06-10T17:58:58.229Z,100782.02
2019-06-10T18:01:27.495Z,100782.39
2019-06-10T18:03:56.627Z,100784.02
2019-06-10T18:06:26.464Z,100788.03
2019-06-10T18:08:56.787Z,100790.67
2019-06-10T18:11:26.515Z,100780.99
2019-06-10T18:13:55.779Z,100785.58
2019-06-10T18:16:26.181Z,100793.88
2019-06-10T18:18:55.381Z,100798.31
2019-06-10T18:21:24.579Z,100809.80
2019-06-10T18:23:53.773Z,100809.08
2019-06-10T18:26:23.273Z,100812.17
2019-06-10T18:29:01.998Z,100811.53
2019-06-10T18:31:23.865Z,100812.56
2019-06-10T18:33:53.208Z,100826.21
2019-06-10T18:36:24.487Z,100832.42
2019-06-10T18:38:53.408Z,100835.46
2019-06-10T18:41:22.621Z,100827.77
2019-06-10T18:43:51.824Z,100821.02
2019-06-10T18:46:23.179Z,100818.05
2019-06-10T18:48:53.643Z,100817.09
2019-06-10T18:51:23.106Z,100823.30
2019-06-10T18:53:52.313Z,100836.63
2019-06-10T18:56:23.217Z,100833.23
2019-06-10T18:58:53.095Z,100835.02
2019-06-10T19:01:22.733Z,100838.59
2019-06-10T19:03:52.357Z,100846.70
2019-06-10T19:06:22.946Z,100850.22
2019-06-10T19:08:53.034Z,100854.26
2019-06-10T19:11:22.331Z,100850.16
2019-06-10T19:13:52.967Z,100862.47
2019-06-10T19:16:23.497Z,100876.98
2019-06-10T19:18:53.027Z,100880.42
2019-06-10T19:21:22.332Z,100877.48
2019-06-10T19:23:53.185Z,100879.72
2019-06-10T19:26:22.526Z,100887.64
2019-06-10T19:28:53.424Z,100886.86
2019-06-10T19:31:22.836Z,100876.54
2019-06-10T19:33:52.071Z,100877.22
2019-06-10T19:36:23.124Z,100890.36
2019-06-10T19:38:52.470Z,100879.42
2019-06-10T19:41:22.382Z,100880.95
2019-06-10T19:44:09.702Z,100881.87
2019-06-10T19:46:56.775Z,100889.22
2019-06-10T19:49:25.952Z,100892.75
2019-06-10T19:51:55.134Z,100906.58
2019-06-10T19:54:24.334Z,100907.71
2019-06-10T19:56:53.553Z,100902.03
2019-06-10T19:59:23.217Z,100902.05
2019-06-10T20:01:54.134Z,100910.46
2019-06-10T20:04:23.379Z,100911.20
2019-06-10T20:06:53.852Z,100914.76
2019-06-10T20:09:23.123Z,100914.17
2019-06-10T20:11:52.310Z,100907.63
2019-06-10T20:14:21.519Z,100904.58
2019-06-10T20:16:52.723Z,100900.84
2019-06-10T20:19:22.449Z,100906.84
2019-06-10T20:21:52.064Z,100913.89
2019-06-10T20:24:22.278Z,100914.74
2019-06-10T20:26:53.006Z,100917.23
2019-06-10T20:29:22.415Z,100904.14
2019-06-10T20:31:52.364Z,100911.20
2019-06-10T20:34:23.848Z,100898.98
2019-06-10T20:36:52.623Z,100892.98
2019-06-10T20:39:24.418Z,100886.33
2019-06-10T20:41:55.609Z,100886.56
2019-06-10T20:44:23.732Z,100889.86
2019-06-10T20:46:53.107Z,100882.81
2019-06-10T20:49:23.247Z,100877.64
2019-06-10T20:52:06.514Z,100870.51
2019-06-10T20:54:25.278Z,100869.88
2019-06-10T20:56:54.490Z,100868.88
2019-06-10T20:59:26.056Z,100867.52
2019-06-10T21:01:54.631Z,100855.33
2019-06-10T21:04:23.909Z,100849.11
2019-06-10T21:06:54.215Z,100848.04
2019-06-10T21:09:25.547Z,100844.47
2019-06-10T21:11:54.862Z,100838.66
2019-06-10T21:14:24.111Z,100845.57
2019-06-10T21:16:53.686Z,100848.91
2019-06-10T21:19:23.428Z,100850.09
2019-06-10T21:21:54.662Z,100852.35
2019-06-10T21:24:23.689Z,100854.97
2019-06-10T21:26:54.720Z,100852.12
2019-06-10T21:29:23.798Z,100853.34
2019-06-10T21:31:54.861Z,100857.25
2019-06-10T21:34:24.008Z,100857.43
2019-06-10T21:36:54.372Z,100857.76
2019-06-10T21:39:24.009Z,100857.43
2019-06-10T21:41:54.738Z,100855.94
2019-06-10T21:44:24.085Z,100854.76
2019-06-10T21:46:53.273Z,100854.88
2019-06-10T21:49:23.646Z,100854.86
2019-06-10T21:52:12.987Z,100860.49
2019-06-10T21:55:00.079Z,100853.98
2019-06-10T21:57:29.305Z,100853.85
2019-06-10T21:59:58.432Z,100863.10
2019-06-10T22:02:47.087Z,100864.73
2019-06-10T22:05:16.823Z,100870.75
2019-06-10T22:07:46.011Z,100866.14
2019-06-10T22:10:16.339Z,100859.72
2019-06-10T22:12:45.978Z,100857.82
2019-06-10T22:15:15.330Z,100852.39
2019-06-10T22:17:44.527Z,100853.95
2019-06-10T22:20:14.145Z,100855.38
2019-06-10T22:22:44.431Z,100852.66
2019-06-10T22:25:14.076Z,100852.29
2019-06-10T22:27:43.468Z,100850.94
2019-06-10T22:30:13.106Z,100851.88
2019-06-10T22:32:45.224Z,100850.75
2019-06-10T22:35:14.691Z,100844.00
2019-06-10T22:37:43.874Z,100856.55
2019-06-10T22:40:13.120Z,100856.27
2019-06-10T22:42:42.303Z,100858.59
2019-06-10T22:45:13.158Z,100858.23
2019-06-10T22:47:42.762Z,100864.23
2019-06-10T22:50:12.675Z,100861.92
2019-06-10T22:52:42.564Z,100855.50
2019-06-10T22:55:12.994Z,100844.77
2019-06-10T22:57:43.959Z,100841.20
2019-06-10T23:00:13.546Z,100837.06
2019-06-10T23:02:43.879Z,100842.02
2019-06-10T23:05:22.981Z,100837.11
2019-06-10T23:07:53.289Z,100845.55
2019-06-10T23:10:22.863Z,100838.06
2019-06-10T23:12:54.924Z,100840.61
2019-06-10T23:15:23.624Z,100845.02
2019-06-10T23:17:55.109Z,100850.55
2019-06-10T23:20:23.774Z,100847.84
2019-06-10T23:22:56.102Z,100844.28
2019-06-10T23:25:23.851Z,100838.78
2019-06-10T23:27:55.973Z,100840.29
2019-06-10T23:30:23.944Z,100839.08
2019-06-10T23:32:55.845Z,100841.03
2019-06-10T23:35:24.042Z,100836.59
2019-06-10T23:37:55.566Z,100838.05
2019-06-10T23:40:24.124Z,100844.22
2019-06-10T23:42:53.326Z,100859.63
2019-06-10T23:45:22.632Z,100857.64
2019-06-10T23:47:54.303Z,100866.62
2019-06-10T23:50:22.769Z,100873.74
2019-06-10T23:52:54.211Z,100877.06
2019-06-10T23:55:22.979Z,100866.62
2019-06-10T23:57:53.583Z,100864.53
